Time;durP1;ratioP1;P1;durP2;ratioP2;P2;SDS_P1;SDS_P2;PMS_P1;PMS_P2;Temp;Humidity;BMP_temperature;BMP_pressure;BME280_temperature;BME280_humidity;BME280_pressure;Samples;Min_cycle;Max_cycle;Signal;HPM_P1;HPM_P2
2023/08/06 00:00:25;;;;;;;516.10;462.23;;;27.30;99.90;;;;;;5056823;28;20048;-69
2023/08/06 00:02:51;;;;;;;450.80;403.92;;;27.30;99.90;;;;;;5056797;28;20036;-69
2023/08/06 00:05:18;;;;;;;417.58;373.98;;;27.30;99.90;;;;;;5056573;28;20021;-69
2023/08/06 00:07:47;;;;;;;195.23;174.77;;;27.30;99.90;;;;;;5056571;28;20052;-70
2023/08/06 00:10:14;;;;;;;258.30;233.02;;;27.30;99.90;;;;;;5056600;28;20054;-69
2023/08/06 00:12:41;;;;;;;243.40;219.13;;;27.30;99.90;;;;;;5055820;28;20083;-69
2023/08/06 00:15:08;;;;;;;252.98;228.13;;;27.30;99.90;;;;;;5056437;28;20051;-70
2023/08/06 00:17:35;;;;;;;240.65;216.70;;;27.40;99.90;;;;;;5056477;28;20032;-70
2023/08/06 00:20:06;;;;;;;234.52;210.80;;;27.40;99.90;;;;;;5056208;28;20497;-70
2023/08/06 00:22:35;;;;;;;204.88;184.32;;;27.50;99.90;;;;;;5056297;28;20037;-71
2023/08/06 00:25:01;;;;;;;208.35;187.40;;;27.50;99.90;;;;;;5056456;28;20099;-69
2023/08/06 00:27:28;;;;;;;199.68;180.45;;;27.50;99.90;;;;;;5056208;28;20521;-69
2023/08/06 00:29:55;;;;;;;274.95;248.77;;;27.40;99.90;;;;;;5056178;28;20025;-70
2023/08/06 00:32:22;;;;;;;273.67;247.23;;;27.40;99.90;;;;;;5056183;28;20017;-69
2023/08/06 00:34:49;;;;;;;1102.63;982.05;;;27.50;99.90;;;;;;5056028;28;20017;-69
2023/08/06 00:37:17;;;;;;;159.60;144.23;;;27.60;99.90;;;;;;5060788;28;20017;-69
2023/08/06 00:39:44;;;;;;;158.80;143.65;;;27.60;99.90;;;;;;5075962;28;20048;-69
2023/08/06 00:42:12;;;;;;;155.23;139.68;;;27.50;99.90;;;;;;5071412;28;20538;-68
2023/08/06 00:44:39;;;;;;;161.85;146.15;;;27.50;99.90;;;;;;5055902;28;20032;-69
2023/08/06 00:47:07;;;;;;;460.85;416.20;;;27.70;99.90;;;;;;5056047;28;20025;-67
2023/08/06 00:49:37;;;;;;;1321.38;999.90;;;27.70;99.90;;;;;;5055668;28;20116;-67
2023/08/06 00:52:05;;;;;;;1349.53;999.90;;;27.80;99.90;;;;;;5055836;28;20036;-67
2023/08/06 00:54:32;;;;;;;1515.28;999.90;;;27.80;99.90;;;;;;5055719;28;20024;-66
2023/08/06 00:57:01;;;;;;;1286.38;999.90;;;27.90;99.90;;;;;;5074077;28;20020;-67
2023/08/06 00:59:29;;;;;;;1568.72;999.90;;;27.90;99.90;;;;;;5075673;28;20056;-67
2023/08/06 01:01:56;;;;;;;1540.65;999.90;;;28.00;99.90;;;;;;5075285;28;20031;-67
2023/08/06 01:04:23;;;;;;;1549.45;999.90;;;28.00;99.90;;;;;;5075428;28;20108;-67
2023/08/06 01:07:03;;;;;;;1335.45;999.90;;;28.00;99.90;;;;;;5075616;28;20033;-67
2023/08/06 01:09:55;;;;;;;1153.13;999.90;;;28.10;99.90;;;;;;5075339;28;20052;-67
2023/08/06 01:12:26;;;;;;;1229.90;999.90;;;28.20;99.90;;;;;;5075486;28;20091;-67
2023/08/06 01:15:08;;;;;;;1259.40;999.90;;;28.20;99.90;;;;;;5075304;28;20054;-67
2023/08/06 01:17:35;;;;;;;1353.93;999.90;;;28.30;99.90;;;;;;5075476;28;20024;-67
2023/08/06 01:20:02;;;;;;;1477.28;999.90;;;28.30;99.90;;;;;;5075164;28;20029;-67
2023/08/06 01:22:28;;;;;;;1544.80;999.90;;;28.30;99.90;;;;;;5075401;28;20440;-67
2023/08/06 01:24:55;;;;;;;1332.88;999.90;;;28.30;99.90;;;;;;5075374;28;20438;-67
2023/08/06 01:27:47;;;;;;;1300.35;999.90;;;28.40;99.90;;;;;;5075405;28;20028;-66
2023/08/06 01:30:22;;;;;;;1359.32;999.90;;;28.30;99.90;;;;;;5075053;28;20078;-67
2023/08/06 01:32:54;;;;;;;1364.90;999.90;;;28.30;99.90;;;;;;5039143;28;20498;-67
2023/08/06 01:35:23;;;;;;;1382.32;999.90;;;28.40;99.90;;;;;;5052072;28;20036;-66
2023/08/06 01:37:50;;;;;;;1456.50;999.90;;;28.50;99.90;;;;;;5054878;28;20108;-67
2023/08/06 01:40:16;;;;;;;1533.07;999.90;;;28.50;99.90;;;;;;5054729;28;20033;-68
2023/08/06 01:42:43;;;;;;;1546.43;999.90;;;28.50;99.90;;;;;;5054377;28;20021;-66
2023/08/06 01:45:10;;;;;;;1568.20;999.90;;;28.60;99.90;;;;;;5054869;28;20027;-66
2023/08/06 01:47:37;;;;;;;1553.47;999.90;;;28.60;99.90;;;;;;5054729;28;20028;-66
2023/08/06 01:50:04;;;;;;;1526.95;999.90;;;28.60;99.90;;;;;;5054536;28;20033;-66
2023/08/06 01:52:30;;;;;;;1509.60;999.90;;;28.60;99.90;;;;;;5053946;28;20058;-65
2023/08/06 01:54:57;;;;;;;1523.15;999.90;;;28.70;99.90;;;;;;5037496;28;20079;-65
2023/08/06 01:57:23;;;;;;;1449.40;999.90;;;28.70;99.90;;;;;;5054618;28;20502;-65
2023/08/06 01:59:50;;;;;;;1442.03;999.90;;;28.80;99.90;;;;;;5044561;28;20025;-65
2023/08/06 02:02:16;;;;;;;1449.68;999.90;;;28.80;99.90;;;;;;5034347;28;20377;-65
2023/08/06 02:04:43;;;;;;;1445.15;999.90;;;29.00;99.90;;;;;;5034482;28;20059;-66
2023/08/06 02:07:09;;;;;;;1487.22;999.90;;;29.10;99.90;;;;;;5034490;28;20039;-66
2023/08/06 02:09:36;;;;;;;1476.28;999.90;;;29.20;99.90;;;;;;5040265;28;20475;-65
2023/08/06 02:12:03;;;;;;;1478.05;999.90;;;29.20;99.90;;;;;;5048848;28;20029;-65
2023/08/06 02:14:29;;;;;;;1460.38;999.90;;;29.30;99.90;;;;;;5050720;28;20108;-65
2023/08/06 02:16:56;;;;;;;1475.55;999.90;;;29.20;99.90;;;;;;5053973;28;20079;-66
2023/08/06 02:19:22;;;;;;;1480.32;999.90;;;29.20;99.90;;;;;;5053494;28;20436;-65
2023/08/06 02:21:49;;;;;;;1496.18;999.90;;;29.30;99.90;;;;;;5054273;28;20063;-66
2023/08/06 02:24:16;;;;;;;1499.45;999.90;;;29.30;99.90;;;;;;5053833;28;20032;-66
2023/08/06 02:26:42;;;;;;;1467.75;999.90;;;29.50;99.90;;;;;;5054027;28;20483;-66
2023/08/06 02:29:09;;;;;;;1452.45;999.90;;;29.50;99.90;;;;;;5051746;28;20045;-65
2023/08/06 02:31:35;;;;;;;1458.88;999.90;;;29.60;99.90;;;;;;5053367;28;20021;-65
2023/08/06 02:34:02;;;;;;;1452.78;999.90;;;29.70;99.90;;;;;;5053943;28;20021;-65
2023/08/06 02:36:29;;;;;;;1470.75;999.90;;;29.70;99.90;;;;;;5053820;28;20049;-65
2023/08/06 02:38:56;;;;;;;1464.28;999.90;;;29.80;99.90;;;;;;5053177;28;20127;-65
2023/08/06 02:41:22;;;;;;;1455.18;999.90;;;29.90;99.90;;;;;;5047963;28;20037;-65
2023/08/06 02:43:49;;;;;;;1514.47;999.90;;;29.90;99.90;;;;;;5033976;28;20479;-65
2023/08/06 02:46:15;;;;;;;1532.38;999.90;;;30.00;99.90;;;;;;5033993;28;20026;-65
2023/08/06 02:48:42;;;;;;;1455.20;999.90;;;30.00;99.90;;;;;;5033543;28;20021;-65
2023/08/06 02:51:08;;;;;;;1652.38;999.90;;;30.20;99.90;;;;;;5034188;28;20048;-65
2023/08/06 02:53:35;;;;;;;1518.80;999.90;;;30.30;99.90;;;;;;5034337;28;20032;-65
2023/08/06 02:56:01;;;;;;;1495.03;999.90;;;30.40;99.90;;;;;;5034562;28;20199;-65
2023/08/06 02:58:28;;;;;;;1324.20;999.90;;;30.40;99.90;;;;;;5034154;28;20041;-64
2023/08/06 03:01:05;;;;;;;1547.20;999.90;;;30.50;99.90;;;;;;5033961;28;20042;-65
2023/08/06 03:03:32;;;;;;;1603.97;999.90;;;30.50;99.90;;;;;;5033862;28;20025;-64
2023/08/06 03:05:59;;;;;;;1445.82;999.90;;;30.50;99.90;;;;;;5034024;28;20108;-64
2023/08/06 03:08:25;;;;;;;1395.93;999.90;;;30.60;99.90;;;;;;5033751;28;20084;-65
2023/08/06 03:10:52;;;;;;;1440.45;999.90;;;30.60;99.90;;;;;;5041149;28;20025;-63
2023/08/06 03:13:19;;;;;;;1417.28;999.90;;;30.60;99.90;;;;;;5053573;28;20025;-65
2023/08/06 03:15:56;;;;;;;1415.53;999.90;;;30.70;99.90;;;;;;5053727;28;20475;-66
2023/08/06 03:18:25;;;;;;;1484.68;999.90;;;30.80;99.90;;;;;;5042299;28;20038;-62
2023/08/06 03:20:52;;;;;;;1550.10;999.90;;;30.80;99.90;;;;;;5043428;28;20052;-63
2023/08/06 03:23:19;;;;;;;1538.60;999.90;;;30.80;99.90;;;;;;5043437;28;20021;-62
2023/08/06 03:25:46;;;;;;;1578.75;999.90;;;30.90;99.90;;;;;;5041916;28;20262;-63
2023/08/06 03:28:12;;;;;;;1543.25;999.90;;;31.00;99.90;;;;;;5041651;28;20048;-63
2023/08/06 03:30:39;;;;;;;1558.53;999.90;;;31.00;99.90;;;;;;5047848;28;20363;-64
2023/08/06 03:33:06;;;;;;;1551.47;999.90;;;31.00;99.90;;;;;;5041852;28;20068;-65
2023/08/06 03:35:32;;;;;;;1317.00;999.90;;;31.00;99.90;;;;;;5052230;28;20479;-67
2023/08/06 03:37:59;;;;;;;1121.25;994.88;;;31.10;99.90;;;;;;5052945;28;20025;-67
2023/08/06 03:40:25;;;;;;;1419.65;999.90;;;31.30;99.90;;;;;;5053168;28;20021;-66
2023/08/06 03:42:52;;;;;;;1418.28;999.90;;;31.30;99.90;;;;;;5052309;28;20086;-65
2023/08/06 03:45:18;;;;;;;1470.65;999.90;;;31.40;99.90;;;;;;5049372;28;20124;-67
2023/08/06 03:47:45;;;;;;;1531.43;999.90;;;31.50;99.90;;;;;;5042882;28;20032;-66
2023/08/06 03:50:11;;;;;;;1538.25;999.90;;;31.50;99.90;;;;;;5050587;28;20029;-66
2023/08/06 03:52:38;;;;;;;1522.85;999.90;;;31.60;99.90;;;;;;5052356;28;20017;-66
2023/08/06 03:55:04;;;;;;;1523.43;999.90;;;31.60;99.90;;;;;;5052452;28;20074;-66
2023/08/06 03:57:31;;;;;;;1473.70;999.90;;;31.70;99.90;;;;;;5052624;28;20021;-66
2023/08/06 03:59:57;;;;;;;1537.70;999.90;;;31.80;99.90;;;;;;5052803;28;20021;-65
2023/08/06 04:02:24;;;;;;;1548.55;999.90;;;31.80;99.90;;;;;;5052988;28;20059;-65
2023/08/06 04:04:53;;;;;;;1579.07;999.90;;;31.80;99.90;;;;;;5053308;28;20021;-66
2023/08/06 04:07:19;;;;;;;1552.97;999.90;;;31.80;99.90;;;;;;5047219;28;20383;-63
2023/08/06 04:09:58;;;;;;;1573.53;999.90;;;31.80;99.90;;;;;;5041548;28;20033;-66
2023/08/06 04:12:25;;;;;;;1597.38;999.90;;;31.80;99.90;;;;;;5041936;28;20022;-65
2023/08/06 04:14:52;;;;;;;1576.13;999.90;;;31.70;99.90;;;;;;5042891;28;20021;-65
2023/08/06 04:17:21;;;;;;;1568.25;999.90;;;31.80;99.90;;;;;;5045725;28;20033;-65
2023/08/06 04:19:52;;;;;;;1555.38;999.90;;;31.80;99.90;;;;;;5045939;28;20031;-64
2023/08/06 04:22:19;;;;;;;1537.53;999.90;;;31.80;99.90;;;;;;5041618;28;20029;-66
2023/08/06 04:24:46;;;;;;;1583.45;999.90;;;31.70;99.90;;;;;;5041504;28;20269;-64
2023/08/06 04:27:14;;;;;;;1604.82;999.90;;;31.60;99.90;;;;;;5042894;28;20463;-66
2023/08/06 04:29:40;;;;;;;1538.45;999.90;;;31.60;99.90;;;;;;5043219;28;20041;-64
2023/08/06 04:32:09;;;;;;;1534.30;999.90;;;31.60;99.90;;;;;;5043649;28;20048;-64
2023/08/06 04:34:36;;;;;;;1540.78;999.90;;;31.60;99.90;;;;;;5042790;28;20387;-65
2023/08/06 04:37:04;;;;;;;1493.10;999.90;;;31.60;99.90;;;;;;5043841;28;20014;-67
2023/08/06 04:39:30;;;;;;;1245.90;999.90;;;31.60;99.90;;;;;;5046473;28;20477;-66
2023/08/06 04:41:57;;;;;;;1234.30;999.90;;;31.60;99.90;;;;;;5055942;28;20039;-67
2023/08/06 04:44:24;;;;;;;1056.53;804.88;;;31.70;99.90;;;;;;5054381;28;20535;-66
2023/08/06 04:46:51;;;;;;;1192.35;999.90;;;31.70;99.90;;;;;;5054078;28;20025;-67
2023/08/06 04:49:19;;;;;;;1328.95;999.90;;;31.70;99.90;;;;;;5045546;28;20021;-66
2023/08/06 04:51:45;;;;;;;1379.75;999.90;;;31.70;99.90;;;;;;5046069;28;20044;-66
2023/08/06 04:54:12;;;;;;;1167.95;999.90;;;31.60;99.90;;;;;;5045355;28;20028;-67
2023/08/06 04:56:38;;;;;;;1253.80;999.90;;;31.60;99.90;;;;;;5044804;28;20088;-67
2023/08/06 04:59:05;;;;;;;1594.93;999.90;;;31.60;99.90;;;;;;5046247;28;20021;-67
2023/08/06 05:01:32;;;;;;;1420.63;999.90;;;31.60;99.90;;;;;;5045362;28;20021;-66
2023/08/06 05:03:58;;;;;;;770.30;669.88;;;31.80;99.90;;;;;;5044759;28;20017;-66
2023/08/06 05:06:25;;;;;;;1444.05;999.90;;;31.80;99.90;;;;;;5056701;28;20471;-66
2023/08/06 05:08:51;;;;;;;66.82;45.38;;;31.80;99.90;;;;;;5047165;28;20025;-66
2023/08/06 05:11:18;;;;;;;20.48;13.05;;;31.80;99.90;;;;;;5049918;28;20017;-66
2023/08/06 05:13:45;;;;;;;31.58;16.88;;;31.90;99.90;;;;;;5049527;28;20237;-66
2023/08/06 05:16:11;;;;;;;530.40;437.67;;;31.90;99.90;;;;;;5050240;28;20475;-67
2023/08/06 05:18:38;;;;;;;55.95;45.33;;;31.80;99.90;;;;;;5049001;28;20079;-67
2023/08/06 05:21:05;;;;;;;779.13;698.53;;;31.80;99.90;;;;;;5043372;28;20071;-66
2023/08/06 05:23:31;;;;;;;307.67;274.05;;;31.70;99.90;;;;;;5045556;28;20511;-67
2023/08/06 05:25:57;;;;;;;313.02;279.52;;;31.60;99.90;;;;;;5045229;28;20462;-67
2023/08/06 05:28:24;;;;;;;24.10;14.20;;;31.60;99.90;;;;;;5043413;28;20021;-66
2023/08/06 05:30:50;;;;;;;193.77;173.20;;;31.60;99.90;;;;;;5045623;28;20025;-66
2023/08/06 05:33:17;;;;;;;690.58;620.15;;;31.60;99.90;;;;;;5044843;28;20422;-66
2023/08/06 05:35:43;;;;;;;601.67;536.40;;;31.50;99.90;;;;;;5043836;28;20271;-66
2023/08/06 05:38:10;;;;;;;1604.40;999.90;;;31.60;99.90;;;;;;5043992;28;20076;-66
2023/08/06 05:40:37;;;;;;;1631.03;999.90;;;31.60;99.90;;;;;;5044888;28;20021;-66
2023/08/06 05:43:03;;;;;;;979.65;830.13;;;31.60;99.90;;;;;;5045910;28;21232;-65
2023/08/06 05:45:30;;;;;;;195.68;168.95;;;31.60;99.90;;;;;;5043794;28;20014;-66
2023/08/06 05:47:58;;;;;;;898.83;780.83;;;31.70;99.90;;;;;;5055778;28;20048;-65
2023/08/06 05:50:24;;;;;;;18.42;14.05;;;31.70;99.90;;;;;;5048440;28;20489;-66
2023/08/06 05:52:51;;;;;;;514.30;443.33;;;31.80;99.90;;;;;;5052545;28;20396;-65
2023/08/06 05:55:19;;;;;;;546.90;487.55;;;31.80;99.90;;;;;;5045208;28;20017;-65
2023/08/06 05:57:45;;;;;;;891.92;768.03;;;31.70;99.90;;;;;;5044186;28;20057;-65
2023/08/06 06:00:12;;;;;;;425.95;380.02;;;31.80;99.90;;;;;;5052741;28;20028;-65
2023/08/06 06:02:38;;;;;;;18.30;13.23;;;31.90;99.90;;;;;;5055445;28;20032;-66
2023/08/06 06:05:05;;;;;;;13.98;9.27;;;32.00;99.90;;;;;;5055894;28;20033;-68
2023/08/06 06:07:31;;;;;;;107.20;81.82;;;32.10;99.90;;;;;;5051950;28;20503;-68
2023/08/06 06:09:58;;;;;;;94.43;64.93;;;32.30;99.90;;;;;;5046845;28;20545;-68
2023/08/06 06:12:26;;;;;;;12.82;9.63;;;32.40;99.90;;;;;;5038812;28;20032;-69
2023/08/06 06:14:52;;;;;;;22.98;16.73;;;32.50;99.90;;;;;;5039227;28;20383;-64
2023/08/06 06:17:19;;;;;;;128.57;112.38;;;32.50;99.90;;;;;;5044239;28;20060;-66
2023/08/06 06:19:46;;;;;;;65.22;57.60;;;32.60;99.90;;;;;;5045693;28;20060;-65
2023/08/06 06:22:13;;;;;;;646.47;573.08;;;32.70;99.90;;;;;;5046736;28;20391;-65
2023/08/06 06:24:39;;;;;;;1545.70;999.90;;;32.70;99.90;;;;;;5043355;28;20028;-66
2023/08/06 06:27:06;;;;;;;1651.43;999.90;;;32.70;99.90;;;;;;5044008;28;20017;-66
2023/08/06 06:29:32;;;;;;;1652.45;999.90;;;32.70;99.90;;;;;;5045731;28;20040;-64
2023/08/06 06:31:59;;;;;;;1604.97;999.90;;;32.70;99.90;;;;;;5055331;28;20021;-66
2023/08/06 06:34:25;;;;;;;1654.13;999.90;;;32.70;99.90;;;;;;5054872;28;20364;-67
2023/08/06 06:36:52;;;;;;;1603.93;999.90;;;32.60;99.90;;;;;;5054998;28;20024;-66
2023/08/06 06:39:18;;;;;;;1616.05;999.90;;;32.60;99.90;;;;;;5054393;28;20494;-67
2023/08/06 06:41:45;;;;;;;1612.22;999.90;;;32.60;99.90;;;;;;5054405;28;20052;-65
2023/08/06 06:44:13;;;;;;;1644.60;999.90;;;32.60;99.90;;;;;;5054190;28;20028;-66
2023/08/06 06:46:40;;;;;;;1457.82;999.90;;;32.60;99.90;;;;;;5054498;28;20510;-65
2023/08/06 06:49:06;;;;;;;1633.07;999.90;;;32.50;99.90;;;;;;5054811;28;20068;-64
2023/08/06 06:51:33;;;;;;;1611.97;999.90;;;32.50;99.90;;;;;;5054347;28;20021;-67
2023/08/06 06:53:59;;;;;;;1605.50;999.90;;;32.60;99.90;;;;;;5054131;28;20048;-66
2023/08/06 06:56:26;;;;;;;1633.95;999.90;;;32.60;99.90;;;;;;5054264;28;20024;-64
2023/08/06 06:58:52;;;;;;;1643.57;999.90;;;32.60;99.90;;;;;;5054638;28;20017;-66
2023/08/06 07:01:19;;;;;;;1592.82;999.90;;;32.60;99.90;;;;;;5054801;28;20021;-66
2023/08/06 07:03:45;;;;;;;1652.40;999.90;;;32.70;99.90;;;;;;5054422;28;20032;-66
2023/08/06 07:06:12;;;;;;;1597.93;999.90;;;32.70;99.90;;;;;;5054418;28;20475;-66
2023/08/06 07:08:39;;;;;;;1617.68;999.90;;;32.80;99.90;;;;;;5054605;28;20025;-66
2023/08/06 07:11:06;;;;;;;1609.70;999.90;;;32.90;99.90;;;;;;5054349;28;20087;-66
2023/08/06 07:13:35;;;;;;;1568.07;999.90;;;33.00;99.90;;;;;;5054420;28;20535;-66
2023/08/06 07:16:02;;;;;;;1573.38;999.90;;;33.20;99.90;;;;;;5053795;28;20036;-67
2023/08/06 07:18:28;;;;;;;1622.10;999.90;;;33.30;99.90;;;;;;5054400;28;20545;-64
2023/08/06 07:20:55;;;;;;;1264.38;999.90;;;33.30;99.90;;;;;;5054466;28;20024;-65
2023/08/06 07:23:24;;;;;;;1148.78;999.90;;;33.20;99.90;;;;;;5046062;28;20228;-64
2023/08/06 07:25:51;;;;;;;1146.25;941.75;;;33.20;99.90;;;;;;5044468;28;20033;-63
2023/08/06 07:28:17;;;;;;;1555.30;999.90;;;33.10;99.90;;;;;;5043548;28;20040;-65
2023/08/06 07:30:45;;;;;;;733.20;611.75;;;33.10;99.90;;;;;;5036887;28;20056;-64
2023/08/06 07:33:12;;;;;;;130.65;116.30;;;33.00;99.90;;;;;;5043101;28;20087;-65
2023/08/06 07:35:38;;;;;;;117.57;77.25;;;33.00;99.90;;;;;;5047648;28;20061;-65
2023/08/06 07:38:05;;;;;;;58.38;41.40;;;33.00;99.90;;;;;;5045131;28;20040;-64
2023/08/06 07:40:32;;;;;;;19.00;10.65;;;33.00;99.90;;;;;;5041959;28;20021;-65
2023/08/06 07:42:58;;;;;;;19.40;11.60;;;33.10;99.90;;;;;;5041409;28;20395;-65
2023/08/06 07:45:26;;;;;;;15.02;9.68;;;33.30;99.90;;;;;;5043573;28;20028;-63
2023/08/06 07:47:53;;;;;;;12.98;9.02;;;33.50;99.90;;;;;;5046543;28;20033;-64
2023/08/06 07:50:20;;;;;;;16.75;11.50;;;33.70;99.90;;;;;;5043751;28;20021;-64
2023/08/06 07:52:46;;;;;;;15.82;11.18;;;33.80;99.90;;;;;;5043217;28;20017;-65
2023/08/06 07:55:12;;;;;;;13.73;9.20;;;33.70;99.90;;;;;;5052605;28;20031;-63
2023/08/06 07:57:39;;;;;;;12.68;8.65;;;33.70;99.90;;;;;;5051084;28;20025;-63
2023/08/06 08:00:06;;;;;;;13.23;9.30;;;33.60;99.90;;;;;;5051425;28;20383;-64
2023/08/06 08:02:32;;;;;;;14.77;9.93;;;33.60;99.90;;;;;;5052850;28;20018;-63
2023/08/06 08:04:59;;;;;;;21.85;9.60;;;33.50;99.90;;;;;;5045088;28;20020;-64
2023/08/06 08:07:28;;;;;;;22.75;10.43;;;33.50;99.90;;;;;;5043574;28;20125;-63
2023/08/06 08:09:54;;;;;;;23.48;17.65;;;33.40;99.90;;;;;;5041968;28;20033;-65
2023/08/06 08:12:21;;;;;;;23.25;16.17;;;33.30;99.90;;;;;;5047766;28;20017;-65
2023/08/06 08:14:47;;;;;;;14.98;10.02;;;33.20;99.90;;;;;;5048628;28;20022;-64
2023/08/06 08:17:14;;;;;;;20.88;13.32;;;33.10;99.90;;;;;;5046967;28;20020;-64
2023/08/06 08:19:41;;;;;;;15.88;10.73;;;33.00;99.90;;;;;;5046701;28;20040;-64
2023/08/06 08:22:08;;;;;;;16.27;10.40;;;33.00;99.90;;;;;;5044911;28;20529;-64
2023/08/06 08:24:34;;;;;;;15.02;9.93;;;32.90;99.90;;;;;;5046681;28;20475;-65
2023/08/06 08:27:01;;;;;;;11.45;8.30;;;33.00;99.90;;;;;;5046558;28;20029;-65
2023/08/06 08:29:27;;;;;;;24.02;15.32;;;33.10;99.90;;;;;;5044856;28;20091;-66
2023/08/06 08:31:54;;;;;;;66.45;39.47;;;33.20;99.90;;;;;;5038612;28;20029;-66
2023/08/06 08:34:20;;;;;;;39.97;24.50;;;33.00;99.90;;;;;;5044909;28;20075;-66
2023/08/06 08:36:47;;;;;;;20.95;14.02;;;32.90;99.90;;;;;;5043658;28;20108;-66
2023/08/06 08:39:14;;;;;;;45.35;29.35;;;32.80;99.90;;;;;;5050452;28;20087;-66
2023/08/06 08:41:41;;;;;;;47.03;29.42;;;32.70;99.90;;;;;;5045567;28;20076;-65
2023/08/06 08:44:11;;;;;;;39.00;26.20;;;32.70;99.90;;;;;;5039250;28;20040;-67
2023/08/06 08:46:40;;;;;;;59.38;37.30;;;32.70;99.90;;;;;;5044921;28;20497;-66
2023/08/06 08:49:07;;;;;;;55.10;35.97;;;32.70;99.90;;;;;;5049457;28;20040;-66
2023/08/06 08:51:35;;;;;;;32.58;23.77;;;32.70;99.90;;;;;;5049067;28;20437;-66
2023/08/06 08:54:04;;;;;;;30.80;20.33;;;32.70;99.90;;;;;;5049217;28;20360;-67
2023/08/06 08:56:31;;;;;;;64.35;37.67;;;32.70;99.90;;;;;;5045648;28;20388;-67
2023/08/06 08:58:58;;;;;;;54.63;31.90;;;32.70;99.90;;;;;;5047054;28;20025;-66
2023/08/06 09:01:26;;;;;;;47.97;34.72;;;32.50;99.90;;;;;;5049181;28;20028;-67
2023/08/06 09:03:54;;;;;;;75.72;45.28;;;32.50;99.90;;;;;;5051125;28;20023;-66
2023/08/06 09:06:21;;;;;;;59.05;30.77;;;32.50;99.90;;;;;;5046852;28;20017;-66
2023/08/06 09:09:02;;;;;;;44.60;29.65;;;32.30;99.90;;;;;;5047594;28;20039;-66
2023/08/06 09:11:31;;;;;;;56.58;36.80;;;32.20;99.90;;;;;;5041370;28;20063;-65
2023/08/06 09:13:57;;;;;;;30.95;19.58;;;32.20;99.90;;;;;;5039501;28;20037;-65
2023/08/06 09:16:24;;;;;;;29.88;20.35;;;32.10;99.90;;;;;;5039169;28;20460;-64
2023/08/06 09:18:51;;;;;;;60.97;41.85;;;32.10;99.90;;;;;;5038094;28;20447;-65
2023/08/06 09:21:17;;;;;;;64.55;44.22;;;32.20;99.90;;;;;;5037602;28;20396;-63
2023/08/06 09:23:44;;;;;;;41.08;23.13;;;32.30;99.90;;;;;;5049518;28;20029;-65
2023/08/06 09:26:13;;;;;;;32.20;24.98;;;32.40;99.90;;;;;;5043440;28;20100;-66
2023/08/06 09:28:42;;;;;;;31.88;19.73;;;32.50;99.90;;;;;;5044713;28;20040;-64
2023/08/06 09:31:10;;;;;;;41.42;28.40;;;32.50;99.90;;;;;;5047861;28;20112;-64
2023/08/06 09:33:38;;;;;;;34.63;21.48;;;32.50;99.90;;;;;;5043507;28;20079;-65
2023/08/06 09:36:13;;;;;;;35.40;24.77;;;32.50;99.90;;;;;;5041356;28;20476;-64
2023/08/06 09:38:41;;;;;;;32.53;22.75;;;32.50;99.90;;;;;;5045604;28;20056;-64
2023/08/06 09:41:08;;;;;;;37.78;24.83;;;32.50;99.90;;;;;;5045951;28;20049;-66
2023/08/06 09:43:44;;;;;;;48.42;31.25;;;32.50;99.90;;;;;;5043763;28;20119;-66
2023/08/06 09:46:16;;;;;;;39.20;26.02;;;32.50;99.90;;;;;;5041172;28;20498;-65
2023/08/06 09:48:45;;;;;;;;;;;32.50;99.90;;;;;;5045140;28;20357;-66
2023/08/06 09:51:13;;;;;;;102.22;72.68;;;32.50;99.90;;;;;;5043482;28;19909;-65
2023/08/06 09:53:41;;;;;;;45.95;20.33;;;32.50;99.90;;;;;;5054752;28;20048;-69
2023/08/06 09:56:09;;;;;;;27.63;15.18;;;32.50;99.90;;;;;;5048533;28;20017;-66
2023/08/06 09:58:38;;;;;;;39.10;22.90;;;32.40;99.90;;;;;;5044297;28;20415;-67
2023/08/06 10:01:05;;;;;;;72.28;50.95;;;32.40;99.90;;;;;;5045333;28;20036;-67
2023/08/06 10:03:34;;;;;;;23.83;18.75;;;32.50;99.90;;;;;;5050927;28;20506;-64
2023/08/06 10:06:02;;;;;;;34.58;14.48;;;32.50;99.90;;;;;;5052030;28;20028;-65
2023/08/06 10:08:28;;;;;;;27.33;16.27;;;32.50;99.90;;;;;;5047548;28;20428;-64
2023/08/06 10:10:57;;;;;;;38.80;20.05;;;32.50;99.90;;;;;;5048547;28;20013;-65
2023/08/06 10:13:24;;;;;;;26.98;15.95;;;32.50;99.90;;;;;;5048727;28;20108;-65
2023/08/06 10:15:52;;;;;;;30.65;17.40;;;32.40;99.90;;;;;;5051072;28;20020;-64
2023/08/06 10:18:21;;;;;;;32.97;17.17;;;32.40;99.90;;;;;;5062873;28;20028;-65
2023/08/06 10:20:48;;;;;;;42.65;24.23;;;32.40;99.90;;;;;;5042273;28;20033;-65
2023/08/06 10:23:14;;;;;;;27.65;17.35;;;32.30;99.90;;;;;;5043747;28;20028;-64
2023/08/06 10:25:43;;;;;;;26.08;16.13;;;32.30;99.90;;;;;;5043353;28;20022;-65
2023/08/06 10:28:13;;;;;;;38.33;21.55;;;32.30;99.90;;;;;;5048006;28;20044;-65
2023/08/06 10:30:44;;;;;;;36.78;19.85;;;32.30;99.90;;;;;;5044027;28;20051;-65
2023/08/06 10:33:11;;;;;;;29.13;15.55;;;32.20;99.90;;;;;;5044553;28;20025;-65
2023/08/06 10:35:37;;;;;;;30.75;17.30;;;32.10;99.90;;;;;;5044527;28;20138;-65
2023/08/06 10:38:09;;;;;;;34.42;19.27;;;32.00;99.90;;;;;;5043496;28;20032;-64
2023/08/06 10:40:36;;;;;;;37.75;15.90;;;32.10;99.90;;;;;;5043413;28;20027;-65
2023/08/06 10:43:06;;;;;;;50.95;25.73;;;32.10;99.90;;;;;;5044414;28;20021;-66
2023/08/06 10:45:35;;;;;;;49.92;26.65;;;32.00;99.90;;;;;;5043912;28;20067;-65
2023/08/06 10:48:03;;;;;;;69.07;35.55;;;32.00;99.90;;;;;;5043966;28;20498;-64
2023/08/06 10:50:31;;;;;;;52.38;28.55;;;32.00;99.90;;;;;;5044872;28;20087;-65
2023/08/06 10:53:04;;;;;;;39.40;19.63;;;32.00;99.90;;;;;;5042413;28;20028;-65
2023/08/06 10:55:31;;;;;;;48.38;24.20;;;32.00;99.90;;;;;;5042946;28;20423;-65
2023/08/06 10:57:58;;;;;;;43.42;26.50;;;32.00;99.90;;;;;;5044341;28;20371;-65
2023/08/06 11:00:25;;;;;;;46.15;28.75;;;32.00;99.90;;;;;;5044349;28;20018;-65
2023/08/06 11:02:55;;;;;;;41.83;24.27;;;31.90;99.90;;;;;;5042645;28;20018;-65
2023/08/06 11:05:21;;;;;;;43.80;23.67;;;31.90;99.90;;;;;;5043579;28;20021;-65
2023/08/06 11:07:49;;;;;;;43.58;24.85;;;32.00;99.90;;;;;;5045849;28;20074;-65
2023/08/06 11:10:15;;;;;;;45.97;27.55;;;31.90;99.90;;;;;;5045149;28;20487;-65
2023/08/06 11:12:42;;;;;;;54.50;32.47;;;31.90;99.90;;;;;;5043533;28;20021;-65
2023/08/06 11:15:10;;;;;;;59.13;35.47;;;31.90;99.90;;;;;;5043544;28;20533;-65
2023/08/06 11:17:39;;;;;;;44.17;24.67;;;31.90;99.90;;;;;;5044126;28;20013;-64
2023/08/06 11:20:06;;;;;;;46.78;27.33;;;31.80;99.90;;;;;;5043066;28;20502;-65
2023/08/06 11:22:33;;;;;;;54.90;32.08;;;31.80;99.90;;;;;;5044701;28;20043;-64
2023/08/06 11:25:00;;;;;;;43.33;27.02;;;31.80;99.90;;;;;;5043475;28;20375;-65
2023/08/06 11:27:29;;;;;;;57.70;34.08;;;31.80;99.90;;;;;;5043699;28;20104;-65
2023/08/06 11:29:55;;;;;;;460.67;332.85;;;31.80;99.90;;;;;;5044000;28;20024;-64
2023/08/06 11:32:22;;;;;;;62.67;31.20;;;31.70;99.90;;;;;;5043662;28;20048;-64
2023/08/06 11:34:48;;;;;;;149.07;110.93;;;31.70;99.90;;;;;;5042484;28;20028;-65
2023/08/06 11:37:15;;;;;;;55.78;27.52;;;31.60;99.90;;;;;;5043923;28;20096;-65
2023/08/06 11:39:49;;;;;;;88.07;68.25;;;31.60;99.90;;;;;;5044397;28;20057;-65
2023/08/06 11:42:15;;;;;;;67.15;34.88;;;31.60;99.90;;;;;;5042411;28;20025;-65
2023/08/06 11:44:49;;;;;;;71.25;40.83;;;31.60;99.90;;;;;;5044324;28;20029;-65
2023/08/06 11:47:18;;;;;;;60.40;33.85;;;31.50;99.90;;;;;;5048648;28;20507;-65
2023/08/06 11:49:48;;;;;;;66.60;37.25;;;31.50;99.90;;;;;;5049363;28;20180;-65
2023/08/06 11:52:25;;;;;;;82.07;43.42;;;31.60;99.90;;;;;;5047380;28;20519;-65
2023/08/06 11:55:07;;;;;;;83.60;45.53;;;31.50;99.90;;;;;;5047874;28;20017;-65
2023/08/06 11:57:35;;;;;;;359.95;281.77;;;31.50;99.90;;;;;;5047887;28;20487;-65
2023/08/06 12:00:04;;;;;;;195.60;154.52;;;31.50;99.90;;;;;;5046555;28;20022;-64
2023/08/06 12:02:35;;;;;;;288.48;229.15;;;31.50;99.90;;;;;;5049103;28;20108;-64
2023/08/06 12:05:10;;;;;;;65.53;34.33;;;31.50;99.90;;;;;;5048379;28;20036;-64
2023/08/06 12:07:41;;;;;;;50.42;28.70;;;31.50;99.90;;;;;;5051417;28;20032;-65
2023/08/06 12:10:08;;;;;;;59.37;30.20;;;31.50;99.90;;;;;;5044971;28;20032;-64
2023/08/06 12:12:35;;;;;;;67.78;32.13;;;31.50;99.90;;;;;;5046045;28;20017;-65